createdAt,value
2019-02-10T00:00:15.655Z,8.10
2019-02-10T00:01:15.643Z,8.10
2019-02-10T00:02:15.627Z,6.00
2019-02-10T00:03:15.632Z,7.50
2019-02-10T00:04:15.624Z,9.90
2019-02-10T00:05:15.594Z,8.90
2019-02-10T00:06:15.587Z,10.10
2019-02-10T00:07:15.582Z,10.90
2019-02-10T00:08:15.584Z,9.30
2019-02-10T00:09:15.555Z,7.90
2019-02-10T00:10:15.545Z,9.50
2019-02-10T00:11:15.537Z,11.80
2019-02-10T00:12:15.524Z,12.80
2019-02-10T00:13:15.549Z,7.80
2019-02-10T00:14:15.502Z,8.50
2019-02-10T00:15:15.498Z,9.60
2019-02-10T00:16:15.481Z,9.90
2019-02-10T00:17:15.470Z,10.80
2019-02-10T00:18:15.987Z,11.90
2019-02-10T00:19:15.462Z,9.80
2019-02-10T00:20:15.445Z,10.20
2019-02-10T00:21:15.431Z,13.40
2019-02-10T00:22:16.622Z,8.80
2019-02-10T00:23:15.407Z,8.40
2019-02-10T00:24:15.409Z,10.80
2019-02-10T00:25:15.386Z,8.50
2019-02-10T00:26:15.377Z,6.90
2019-02-10T00:27:15.365Z,11.60
2019-02-10T00:28:15.355Z,10.30
2019-02-10T00:29:15.363Z,9.20
2019-02-10T00:30:15.334Z,9.50
2019-02-10T00:31:15.323Z,9.90
2019-02-10T00:32:15.311Z,10.10
2019-02-10T00:33:15.343Z,8.50
2019-02-10T00:34:15.300Z,7.60
2019-02-10T00:35:15.286Z,9.90
2019-02-10T00:36:15.274Z,10.40
2019-02-10T00:37:15.262Z,10.70
2019-02-10T00:38:15.245Z,9.20
2019-02-10T00:39:15.246Z,9.00
2019-02-10T00:40:15.224Z,6.80
2019-02-10T00:41:15.210Z,9.00
2019-02-10T00:42:15.204Z,9.20
2019-02-10T00:43:15.190Z,9.60
2019-02-10T00:44:15.192Z,8.20
2019-02-10T00:45:15.176Z,7.60
2019-02-10T00:46:15.160Z,11.00
2019-02-10T00:47:15.159Z,8.50
2019-02-10T00:48:15.170Z,11.80
2019-02-10T00:49:15.143Z,9.80
2019-02-10T00:50:15.117Z,10.90
2019-02-10T00:51:15.111Z,8.10
2019-02-10T00:52:15.122Z,13.20
2019-02-10T00:53:15.090Z,8.40
2019-02-10T00:54:15.098Z,11.70
2019-02-10T00:55:15.065Z,9.10
2019-02-10T00:56:15.056Z,8.10
2019-02-10T00:57:15.049Z,9.30
2019-02-10T00:58:15.033Z,10.50
2019-02-10T00:59:15.036Z,8.70
2019-02-10T01:00:15.028Z,10.50
2019-02-10T01:01:15.006Z,8.40
2019-02-10T01:02:14.994Z,13.10
2019-02-10T01:03:14.980Z,12.00
2019-02-10T01:04:14.982Z,11.50
2019-02-10T01:05:14.958Z,8.80
2019-02-10T01:06:14.954Z,8.90
2019-02-10T01:07:14.943Z,9.60
2019-02-10T01:08:14.927Z,8.70
2019-02-10T01:09:14.915Z,11.20
2019-02-10T01:10:14.917Z,9.00
2019-02-10T01:11:14.897Z,9.10
2019-02-10T01:12:14.888Z,8.40
2019-02-10T01:13:14.874Z,9.20
2019-02-10T01:14:14.865Z,11.40
2019-02-10T01:15:14.869Z,6.70
2019-02-10T01:16:14.841Z,11.20
2019-02-10T01:17:14.831Z,9.40
2019-02-10T01:18:14.827Z,9.70
2019-02-10T01:19:14.811Z,7.40
2019-02-10T01:20:14.814Z,10.30
2019-02-10T01:21:14.787Z,9.10
2019-02-10T01:22:14.780Z,10.70
2019-02-10T01:23:14.772Z,8.90
2019-02-10T01:24:14.765Z,10.90
2019-02-10T01:25:14.760Z,9.00
2019-02-10T01:26:14.733Z,11.40
2019-02-10T01:27:14.738Z,10.90
2019-02-10T01:28:14.716Z,9.90
2019-02-10T01:29:14.708Z,9.00
2019-02-10T01:30:14.704Z,10.00
2019-02-10T01:31:14.679Z,9.80
2019-02-10T01:32:14.667Z,9.40
2019-02-10T01:33:14.657Z,12.40
2019-02-10T01:34:14.650Z,9.10
2019-02-10T01:35:14.647Z,9.90
2019-02-10T01:36:14.625Z,12.60
2019-02-10T01:37:14.615Z,10.00
2019-02-10T01:38:14.604Z,11.90
2019-02-10T01:39:14.596Z,13.20
2019-02-10T01:40:14.593Z,12.00
2019-02-10T01:41:14.572Z,13.90
2019-02-10T01:42:14.562Z,12.30
2019-02-10T01:43:14.552Z,10.20
2019-02-10T01:44:14.541Z,11.80
2019-02-10T01:45:14.539Z,11.00
2019-02-10T01:46:14.523Z,10.50
2019-02-10T01:47:14.511Z,10.80
2019-02-10T01:48:14.498Z,10.70
2019-02-10T01:49:14.490Z,9.20
2019-02-10T01:50:14.490Z,9.30
2019-02-10T01:51:14.466Z,9.80
2019-02-10T01:52:14.470Z,8.40
2019-02-10T01:53:14.445Z,9.90
2019-02-10T01:54:14.450Z,7.50
2019-02-10T01:55:14.433Z,10.90
2019-02-10T01:56:14.413Z,9.20
2019-02-10T01:57:14.406Z,9.50
2019-02-10T01:58:14.398Z,10.00
2019-02-10T01:59:14.389Z,10.20
2019-02-10T02:00:14.395Z,11.50
2019-02-10T02:01:14.358Z,10.50
2019-02-10T02:02:14.355Z,10.30
2019-02-10T02:03:14.338Z,10.30
2019-02-10T02:04:14.342Z,11.80
2019-02-10T02:05:14.324Z,9.50
2019-02-10T02:06:14.302Z,9.70
2019-02-10T02:07:14.298Z,9.10
2019-02-10T02:08:14.288Z,10.60
2019-02-10T02:09:14.280Z,10.50
2019-02-10T02:10:14.274Z,12.30
2019-02-10T02:11:14.254Z,11.30
2019-02-10T02:12:14.242Z,11.50
2019-02-10T02:13:14.999Z,10.10
2019-02-10T02:14:14.274Z,10.90
2019-02-10T02:15:14.219Z,9.80
2019-02-10T02:16:14.199Z,9.30
2019-02-10T02:17:14.192Z,11.40
2019-02-10T02:18:14.179Z,10.70
2019-02-10T02:19:14.177Z,12.10
2019-02-10T02:20:14.172Z,10.30
2019-02-10T02:21:14.155Z,9.40
2019-02-10T02:22:14.138Z,8.40
2019-02-10T02:23:14.129Z,10.50
2019-02-10T02:24:14.115Z,9.40
2019-02-10T02:25:14.118Z,10.50
2019-02-10T02:26:14.110Z,9.80
2019-02-10T02:27:14.086Z,10.20
2019-02-10T02:28:14.075Z,10.20
2019-02-10T02:29:14.062Z,9.60
2019-02-10T02:30:14.066Z,12.20
2019-02-10T02:31:14.043Z,12.10
2019-02-10T02:32:14.032Z,11.80
2019-02-10T02:33:14.033Z,8.50
2019-02-10T02:34:14.017Z,10.60
2019-02-10T02:35:14.012Z,10.90
2019-02-10T02:36:13.992Z,8.60
2019-02-10T02:37:13.981Z,9.20
2019-02-10T02:38:13.975Z,10.60
2019-02-10T02:39:13.957Z,9.90
2019-02-10T02:40:13.956Z,9.50
2019-02-10T02:41:13.934Z,9.90
2019-02-10T02:42:13.924Z,12.90
2019-02-10T02:43:13.919Z,10.70
2019-02-10T02:44:13.907Z,10.20
2019-02-10T02:45:13.913Z,10.00
2019-02-10T02:46:13.887Z,8.80
2019-02-10T02:47:13.874Z,12.80
2019-02-10T02:48:13.879Z,10.70
2019-02-10T02:49:13.866Z,9.70
2019-02-10T02:50:13.859Z,13.10
2019-02-10T02:51:13.829Z,8.30
2019-02-10T02:52:13.822Z,13.30
2019-02-10T02:53:13.808Z,10.70
2019-02-10T02:54:13.799Z,12.00
2019-02-10T02:55:13.802Z,10.20
2019-02-10T02:56:13.778Z,9.40
2019-02-10T02:57:13.785Z,11.70
2019-02-10T02:58:13.758Z,9.00
2019-02-10T02:59:13.750Z,11.90
2019-02-10T03:00:13.747Z,11.00
2019-02-10T03:01:13.723Z,11.40
2019-02-10T03:02:13.715Z,11.10
2019-02-10T03:03:13.707Z,9.20
2019-02-10T03:04:13.698Z,12.90
2019-02-10T03:05:13.692Z,10.80
2019-02-10T03:06:13.675Z,8.30
2019-02-10T03:07:18.008Z,11.60
2019-02-10T03:08:13.650Z,11.20
2019-02-10T03:09:13.640Z,9.80
2019-02-10T03:10:13.641Z,11.50
2019-02-10T03:11:13.619Z,12.00
2019-02-10T03:12:13.608Z,8.40
2019-02-10T03:13:13.599Z,10.20
2019-02-10T03:14:13.589Z,10.00
2019-02-10T03:15:13.608Z,10.10
2019-02-10T03:16:13.566Z,9.80
2019-02-10T03:17:13.557Z,12.60
2019-02-10T03:18:13.550Z,11.70
2019-02-10T03:19:13.535Z,11.70
2019-02-10T03:20:13.535Z,9.80
2019-02-10T03:21:13.514Z,8.10
2019-02-10T03:22:13.502Z,11.90
2019-02-10T03:23:13.493Z,11.90
2019-02-10T03:24:13.484Z,11.10
2019-02-10T03:25:13.484Z,8.10
2019-02-10T03:26:13.462Z,12.10
2019-02-10T03:27:13.453Z,8.50
2019-02-10T03:28:13.445Z,13.20
2019-02-10T03:29:13.430Z,10.20
2019-02-10T03:30:13.431Z,8.30
2019-02-10T03:31:13.415Z,7.80
2019-02-10T03:32:13.412Z,11.80
2019-02-10T03:33:13.391Z,10.40
2019-02-10T03:34:13.380Z,9.80
2019-02-10T03:35:13.396Z,10.60
2019-02-10T03:36:13.356Z,10.60
2019-02-10T03:37:13.344Z,10.70
2019-02-10T03:38:13.338Z,9.40
2019-02-10T03:39:13.337Z,11.70
2019-02-10T03:40:13.316Z,10.00
2019-02-10T03:41:13.314Z,10.20
2019-02-10T03:42:13.306Z,11.00
2019-02-10T03:43:13.283Z,10.80
2019-02-10T03:44:13.269Z,12.60
2019-02-10T03:45:13.257Z,10.00
2019-02-10T03:46:13.280Z,8.50
2019-02-10T03:47:13.242Z,11.90
2019-02-10T03:48:13.229Z,11.00
2019-02-10T03:49:13.223Z,10.80
2019-02-10T03:50:13.222Z,11.10
2019-02-10T03:51:13.212Z,11.40
2019-02-10T03:52:13.190Z,11.60
2019-02-10T03:53:13.177Z,10.40
2019-02-10T03:54:13.166Z,12.00
2019-02-10T03:55:13.159Z,11.40
2019-02-10T03:56:13.160Z,9.50
2019-02-10T03:57:13.133Z,12.20
2019-02-10T03:58:13.122Z,10.40
2019-02-10T03:59:13.127Z,11.90
2019-02-10T04:00:13.098Z,10.60
2019-02-10T04:01:13.104Z,12.10
2019-02-10T04:02:13.081Z,13.00
2019-02-10T04:03:13.068Z,12.00
2019-02-10T04:04:13.060Z,11.50
2019-02-10T04:05:13.051Z,10.60
2019-02-10T04:06:13.047Z,7.00
2019-02-10T04:07:13.025Z,9.80
2019-02-10T04:08:13.019Z,8.80
2019-02-10T04:09:13.018Z,13.50
2019-02-10T04:10:12.996Z,12.00
2019-02-10T04:11:12.999Z,10.60
2019-02-10T04:12:12.976Z,13.70
2019-02-10T04:13:12.966Z,11.60
2019-02-10T04:14:12.953Z,10.40
2019-02-10T04:15:12.943Z,11.20
2019-02-10T04:16:12.951Z,12.60
2019-02-10T04:17:12.922Z,10.10
2019-02-10T04:18:12.913Z,12.50
2019-02-10T04:19:12.946Z,10.20
2019-02-10T04:20:12.897Z,12.70
2019-02-10T04:21:12.892Z,12.60
2019-02-10T04:22:12.893Z,9.00
2019-02-10T04:23:12.862Z,11.00
2019-02-10T04:24:12.857Z,9.80
2019-02-10T04:25:12.838Z,11.80
2019-02-10T04:26:12.839Z,8.70
2019-02-10T04:27:12.816Z,15.40
2019-02-10T04:28:12.804Z,10.60
2019-02-10T04:29:12.795Z,10.60
2019-02-10T04:30:12.784Z,11.10
2019-02-10T04:31:12.802Z,13.20
2019-02-10T04:32:12.766Z,9.70
2019-02-10T04:33:12.755Z,9.60
2019-02-10T04:34:12.747Z,10.20
2019-02-10T04:35:12.734Z,9.30
2019-02-10T04:36:12.735Z,9.20
2019-02-10T04:37:12.712Z,9.50
2019-02-10T04:38:12.699Z,9.40
2019-02-10T04:39:12.689Z,10.30
2019-02-10T04:40:12.680Z,13.00
2019-02-10T04:41:12.684Z,9.70
2019-02-10T04:42:12.661Z,11.00
2019-02-10T04:43:12.651Z,8.80
2019-02-10T04:44:12.638Z,9.20
2019-02-10T04:45:12.624Z,11.00
2019-02-10T04:46:12.629Z,10.70
2019-02-10T04:47:12.663Z,12.20
2019-02-10T04:48:12.597Z,11.00
2019-02-10T04:49:12.587Z,10.50
2019-02-10T04:50:12.579Z,11.80
2019-02-10T04:51:12.576Z,11.10
2019-02-10T04:52:12.553Z,9.50
2019-02-10T04:53:12.544Z,9.50
2019-02-10T04:54:12.539Z,10.20
2019-02-10T04:55:12.522Z,10.70
2019-02-10T04:56:12.519Z,9.80
2019-02-10T04:57:12.501Z,9.90
2019-02-10T04:58:12.490Z,12.10
2019-02-10T04:59:12.496Z,12.30
2019-02-10T05:00:12.469Z,10.90
2019-02-10T05:01:12.475Z,9.70
2019-02-10T05:02:12.446Z,11.70
2019-02-10T05:03:12.442Z,10.30
2019-02-10T05:04:12.430Z,10.00
2019-02-10T05:05:12.415Z,7.60
2019-02-10T05:06:12.415Z,10.60
2019-02-10T05:07:12.405Z,8.40
2019-02-10T05:08:12.388Z,11.80
2019-02-10T05:09:12.375Z,12.40
2019-02-10T05:10:12.361Z,8.60
2019-02-10T05:11:12.362Z,11.60
2019-02-10T05:12:12.345Z,11.40
2019-02-10T05:13:12.328Z,10.10
2019-02-10T05:14:12.319Z,9.90
2019-02-10T05:15:12.308Z,11.10
2019-02-10T05:16:12.312Z,10.30
2019-02-10T05:17:12.288Z,11.40
2019-02-10T05:18:12.284Z,12.30
2019-02-10T05:19:12.268Z,10.70
2019-02-10T05:20:12.263Z,9.40
2019-02-10T05:21:12.246Z,13.60
2019-02-10T05:22:12.248Z,13.30
2019-02-10T05:23:12.227Z,10.80
2019-02-10T05:24:12.219Z,10.50
2019-02-10T05:25:12.201Z,8.40
2019-02-10T05:26:12.201Z,10.50
2019-02-10T05:27:12.197Z,10.10
2019-02-10T05:28:12.175Z,11.00
2019-02-10T05:29:12.164Z,9.40
2019-02-10T05:30:12.152Z,8.70
2019-02-10T05:31:12.147Z,10.60
2019-02-10T05:32:12.147Z,11.60
2019-02-10T05:33:12.122Z,11.50
2019-02-10T05:34:12.109Z,11.60
2019-02-10T05:35:12.102Z,8.60
2019-02-10T05:36:12.090Z,9.20
2019-02-10T05:37:12.088Z,11.90
2019-02-10T05:38:12.069Z,10.00
2019-02-10T05:39:12.057Z,10.00
2019-02-10T05:40:12.048Z,10.50
2019-02-10T05:41:12.034Z,13.40
2019-02-10T05:42:12.058Z,9.30
2019-02-10T05:43:12.015Z,9.30
2019-02-10T05:44:12.002Z,8.90
2019-02-10T05:45:11.993Z,9.90
2019-02-10T05:46:11.983Z,9.90
2019-02-10T05:47:11.984Z,10.10
2019-02-10T05:48:11.962Z,13.90
2019-02-10T05:49:11.954Z,8.80
2019-02-10T05:50:11.945Z,12.60
2019-02-10T05:51:11.929Z,11.20
2019-02-10T05:52:11.935Z,8.50
2019-02-10T05:53:11.911Z,11.50
2019-02-10T05:54:11.898Z,9.80
2019-02-10T05:55:11.888Z,10.10
2019-02-10T05:56:11.875Z,10.50
2019-02-10T05:57:11.876Z,11.70
2019-02-10T05:58:11.856Z,10.70
2019-02-10T05:59:11.848Z,10.90
2019-02-10T06:00:11.836Z,11.50
2019-02-10T06:01:11.831Z,10.80
2019-02-10T06:02:11.828Z,12.00
2019-02-10T06:03:11.808Z,12.40
2019-02-10T06:04:11.795Z,9.70
2019-02-10T06:05:11.787Z,14.80
2019-02-10T06:06:11.772Z,9.10
2019-02-10T06:07:11.776Z,8.40
2019-02-10T06:08:13.625Z,9.70
2019-02-10T06:09:11.743Z,8.80
2019-02-10T06:10:11.734Z,8.70
2019-02-10T06:11:11.728Z,12.20
2019-02-10T06:12:11.722Z,10.60
2019-02-10T06:13:11.697Z,8.90
2019-02-10T06:14:11.686Z,9.70
2019-02-10T06:15:11.678Z,10.90
2019-02-10T06:16:11.668Z,10.80
2019-02-10T06:17:11.675Z,9.30
2019-02-10T06:18:11.649Z,10.20
2019-02-10T06:19:11.636Z,10.90
2019-02-10T06:20:11.628Z,10.90
2019-02-10T06:21:11.614Z,8.50
2019-02-10T06:22:11.615Z,11.70
2019-02-10T06:23:11.598Z,8.40
2019-02-10T06:24:11.586Z,11.50
2019-02-10T06:25:11.572Z,11.10
2019-02-10T06:26:11.560Z,12.00
2019-02-10T06:27:11.573Z,13.30
2019-02-10T06:28:11.550Z,11.00
2019-02-10T06:29:11.532Z,12.50
2019-02-10T06:30:11.521Z,11.10
2019-02-10T06:31:11.531Z,14.20
2019-02-10T06:32:11.511Z,10.10
2019-02-10T06:33:11.489Z,13.90
2019-02-10T06:34:11.490Z,11.90
2019-02-10T06:35:11.477Z,11.00
2019-02-10T06:36:11.464Z,16.70
2019-02-10T06:37:11.458Z,9.60
2019-02-10T06:38:11.448Z,10.80
2019-02-10T06:39:11.425Z,10.80
2019-02-10T06:40:11.426Z,9.40
2019-02-10T06:41:11.401Z,12.70
2019-02-10T06:42:11.404Z,11.90
2019-02-10T06:43:11.381Z,12.20
2019-02-10T06:44:11.375Z,12.40
2019-02-10T06:45:11.363Z,10.30
2019-02-10T06:46:11.354Z,13.10
2019-02-10T06:47:11.353Z,12.40
2019-02-10T06:48:11.331Z,11.30
2019-02-10T06:49:11.321Z,11.80
2019-02-10T06:50:11.312Z,12.20
2019-02-10T06:51:11.304Z,11.90
2019-02-10T06:52:11.592Z,12.90
2019-02-10T06:53:11.276Z,12.20
2019-02-10T06:54:11.267Z,11.40
2019-02-10T06:55:11.257Z,10.80
2019-02-10T06:56:11.246Z,13.70
2019-02-10T06:57:11.234Z,12.10
2019-02-10T06:58:11.237Z,12.50
2019-02-10T06:59:11.213Z,10.30
2019-02-10T07:00:11.202Z,9.50
2019-02-10T07:01:11.197Z,11.10
2019-02-10T07:02:11.180Z,14.00
2019-02-10T07:03:11.189Z,11.50
2019-02-10T07:04:11.159Z,10.60
2019-02-10T07:05:11.153Z,12.10
2019-02-10T07:06:11.140Z,13.60
2019-02-10T07:07:11.131Z,10.30
2019-02-10T07:08:11.137Z,9.70
2019-02-10T07:09:11.110Z,10.90
2019-02-10T07:10:11.098Z,10.00
2019-02-10T07:11:11.099Z,13.20
2019-02-10T07:12:11.079Z,11.60
2019-02-10T07:13:11.082Z,11.70
2019-02-10T07:14:11.058Z,12.00
2019-02-10T07:15:11.105Z,9.90
2019-02-10T07:16:11.075Z,13.10
2019-02-10T07:17:11.031Z,12.00
2019-02-10T07:18:11.026Z,10.90
2019-02-10T07:19:11.016Z,10.00
2019-02-10T07:20:11.000Z,11.60
2019-02-10T07:21:10.987Z,13.20
2019-02-10T07:22:10.974Z,11.00
2019-02-10T07:23:10.981Z,12.20
2019-02-10T07:24:10.949Z,11.60
2019-02-10T07:25:10.940Z,12.00
2019-02-10T07:26:10.933Z,12.70
2019-02-10T07:27:10.917Z,14.30
2019-02-10T07:28:10.916Z,11.10
2019-02-10T07:29:10.959Z,10.00
2019-02-10T07:30:10.891Z,11.00
2019-02-10T07:31:10.874Z,11.10
2019-02-10T07:32:10.869Z,10.90
2019-02-10T07:33:10.877Z,14.50
2019-02-10T07:34:10.843Z,12.60
2019-02-10T07:35:11.561Z,11.80
2019-02-10T07:36:10.822Z,11.70
2019-02-10T07:37:10.816Z,11.50
2019-02-10T07:38:10.815Z,11.90
2019-02-10T07:39:10.789Z,12.20
2019-02-10T07:40:10.781Z,13.80
2019-02-10T07:41:10.766Z,11.30
2019-02-10T07:42:10.756Z,12.40
2019-02-10T07:43:10.767Z,12.80
2019-02-10T07:44:10.746Z,11.60
2019-02-10T07:45:10.722Z,13.20
2019-02-10T07:46:10.714Z,13.60
2019-02-10T07:47:10.701Z,12.40
2019-02-10T07:48:10.705Z,12.50
2019-02-10T07:49:10.688Z,10.60
2019-02-10T07:50:10.679Z,10.10
2019-02-10T07:51:10.667Z,11.80
2019-02-10T07:52:10.651Z,12.90
2019-02-10T07:53:10.636Z,13.40
2019-02-10T07:54:10.641Z,10.90
2019-02-10T07:55:10.615Z,11.80
2019-02-10T07:56:10.623Z,11.70
2019-02-10T07:57:10.597Z,12.30
2019-02-10T07:58:10.585Z,13.30
2019-02-10T07:59:10.590Z,10.60
2019-02-10T08:00:10.562Z,13.00
2019-02-10T08:01:10.555Z,12.70
2019-02-10T08:02:10.542Z,8.80
2019-02-10T08:03:10.530Z,12.50
2019-02-10T08:04:10.534Z,12.60
2019-02-10T08:05:10.507Z,11.20
2019-02-10T08:06:10.501Z,10.90
2019-02-10T08:07:10.493Z,13.40
2019-02-10T08:08:10.479Z,12.70
2019-02-10T08:09:10.476Z,13.80
2019-02-10T08:10:10.453Z,10.10
2019-02-10T08:11:10.442Z,11.90
2019-02-10T08:12:10.437Z,10.90
2019-02-10T08:13:10.433Z,11.40
2019-02-10T08:14:10.436Z,12.80
2019-02-10T08:15:10.402Z,12.80
2019-02-10T08:16:10.389Z,11.60
2019-02-10T08:17:11.064Z,11.10
2019-02-10T08:18:10.368Z,12.00
2019-02-10T08:19:10.382Z,12.80
2019-02-10T08:20:10.345Z,11.10
2019-02-10T08:21:11.209Z,12.00
2019-02-10T08:22:10.324Z,12.60
2019-02-10T08:23:10.316Z,14.40
2019-02-10T08:24:10.337Z,11.50
2019-02-10T08:25:10.294Z,13.50
2019-02-10T08:26:10.282Z,10.70
2019-02-10T08:27:10.279Z,15.50
2019-02-10T08:28:10.262Z,9.40
2019-02-10T08:29:10.263Z,12.70
2019-02-10T08:30:10.240Z,12.60
2019-02-10T08:31:10.224Z,11.80
2019-02-10T08:32:10.215Z,13.00
2019-02-10T08:33:10.206Z,13.40
2019-02-10T08:34:10.204Z,11.90
2019-02-10T08:35:10.184Z,12.60
2019-02-10T08:36:10.178Z,11.60
2019-02-10T08:37:10.162Z,14.20
2019-02-10T08:38:10.152Z,13.30
2019-02-10T08:39:10.174Z,12.90
2019-02-10T08:40:10.128Z,14.70
2019-02-10T08:41:10.126Z,14.80
2019-02-10T08:42:10.109Z,13.20
2019-02-10T08:43:10.100Z,10.70
2019-02-10T08:44:10.086Z,13.70
2019-02-10T08:45:10.088Z,18.40
2019-02-10T08:46:10.069Z,15.20
2019-02-10T08:47:10.053Z,15.90
2019-02-10T08:48:10.043Z,15.00
2019-02-10T08:49:10.032Z,16.60
2019-02-10T08:50:10.030Z,14.90
2019-02-10T08:51:10.021Z,14.40
2019-02-10T08:52:10.000Z,11.70
2019-02-10T08:53:09.997Z,13.00
2019-02-10T08:54:09.977Z,14.80
2019-02-10T08:55:09.980Z,14.90
2019-02-10T08:56:09.954Z,12.80
2019-02-10T08:57:09.945Z,17.00
2019-02-10T08:58:09.931Z,16.00
2019-02-10T08:59:09.929Z,15.50
2019-02-10T09:00:09.924Z,16.40
2019-02-10T09:01:09.902Z,14.80
2019-02-10T09:02:09.893Z,17.30
2019-02-10T09:03:10.865Z,13.50
2019-02-10T09:04:09.870Z,15.10
2019-02-10T09:05:09.870Z,13.50
2019-02-10T09:06:09.846Z,15.80
2019-02-10T09:07:09.836Z,17.90
2019-02-10T09:08:09.829Z,15.70
2019-02-10T09:09:09.813Z,16.40
2019-02-10T09:10:09.814Z,11.40
2019-02-10T09:11:09.791Z,16.30
2019-02-10T09:12:09.786Z,14.70
2019-02-10T09:13:09.770Z,15.40
2019-02-10T09:14:09.763Z,15.90
2019-02-10T09:15:09.773Z,16.50
2019-02-10T09:16:09.742Z,17.90
2019-02-10T09:17:09.727Z,17.90
2019-02-10T09:18:09.714Z,17.00
2019-02-10T09:19:09.704Z,15.10
2019-02-10T09:20:09.708Z,16.60
2019-02-10T09:21:09.687Z,18.90
2019-02-10T09:22:09.681Z,17.60
2019-02-10T09:23:09.660Z,17.70
2019-02-10T09:24:09.651Z,15.80
2019-02-10T09:25:09.653Z,15.20
2019-02-10T09:26:09.628Z,15.70
2019-02-10T09:27:09.618Z,16.60
2019-02-10T09:28:09.611Z,16.70
2019-02-10T09:29:09.597Z,20.00
2019-02-10T09:30:09.603Z,14.00
2019-02-10T09:31:09.575Z,18.50
2019-02-10T09:32:09.565Z,17.10
2019-02-10T09:33:09.575Z,16.40
2019-02-10T09:34:09.545Z,16.20
2019-02-10T09:35:09.545Z,18.40
2019-02-10T09:36:09.523Z,19.00
2019-02-10T09:37:09.514Z,17.60
2019-02-10T09:38:09.503Z,15.50
2019-02-10T09:39:10.867Z,16.40
2019-02-10T09:40:09.491Z,14.20
2019-02-10T09:41:09.470Z,19.60
2019-02-10T09:42:09.475Z,22.80
2019-02-10T09:43:09.465Z,19.60
2019-02-10T09:44:09.439Z,16.20
2019-02-10T09:45:09.481Z,16.40
2019-02-10T09:46:09.417Z,19.80
2019-02-10T09:47:09.405Z,18.10
2019-02-10T09:48:09.403Z,20.20
2019-02-10T09:49:09.390Z,15.20
2019-02-10T09:50:11.201Z,19.90
2019-02-10T09:51:09.379Z,14.70
2019-02-10T09:52:09.353Z,16.40
2019-02-10T09:53:09.344Z,20.30
2019-02-10T09:54:09.412Z,18.80
2019-02-10T09:55:09.325Z,16.80
2019-02-10T09:56:10.595Z,16.90
2019-02-10T09:57:09.304Z,18.10
2019-02-10T09:58:09.292Z,20.00
2019-02-10T09:59:09.282Z,21.70
2019-02-10T10:00:09.272Z,15.70
2019-02-10T10:01:09.273Z,13.60
2019-02-10T10:02:09.249Z,15.20
2019-02-10T10:03:09.239Z,16.10
2019-02-10T10:04:09.227Z,17.50
2019-02-10T10:05:09.219Z,19.60
2019-02-10T10:06:09.226Z,17.00
2019-02-10T10:07:09.201Z,18.30
2019-02-10T10:08:09.188Z,15.60
2019-02-10T10:09:09.175Z,17.20
2019-02-10T10:10:09.165Z,16.70
2019-02-10T10:11:09.162Z,17.70
2019-02-10T10:12:09.148Z,20.30
2019-02-10T10:13:09.136Z,15.20
2019-02-10T10:14:09.130Z,15.10
2019-02-10T10:15:09.113Z,17.60
2019-02-10T10:16:09.111Z,15.30
2019-02-10T10:17:09.096Z,16.50
2019-02-10T10:18:09.078Z,13.50
2019-02-10T10:19:09.073Z,17.50
2019-02-10T10:20:09.068Z,16.00
2019-02-10T10:21:09.123Z,12.80
2019-02-10T10:22:09.037Z,17.60
2019-02-10T10:23:09.027Z,17.10
2019-02-10T10:24:09.020Z,19.30
2019-02-10T10:25:09.007Z,15.30
2019-02-10T10:26:09.010Z,15.80
2019-02-10T10:27:08.989Z,15.30
2019-02-10T10:28:08.974Z,19.80
2019-02-10T10:29:08.967Z,16.40
2019-02-10T10:30:08.952Z,14.80
2019-02-10T10:31:08.978Z,18.40
2019-02-10T10:32:08.968Z,14.80
2019-02-10T10:33:08.944Z,13.10
2019-02-10T10:34:08.915Z,19.80
2019-02-10T10:35:08.907Z,16.50
2019-02-10T10:36:08.923Z,16.20
2019-02-10T10:37:08.881Z,19.30
2019-02-10T10:38:08.873Z,13.90
2019-02-10T10:39:08.859Z,17.60
2019-02-10T10:40:08.917Z,17.20
2019-02-10T10:41:08.866Z,15.30
2019-02-10T10:42:08.825Z,15.80
2019-02-10T10:43:08.818Z,16.30
2019-02-10T10:44:08.809Z,16.40
2019-02-10T10:45:08.794Z,20.30
2019-02-10T10:46:08.794Z,16.40
2019-02-10T10:47:08.777Z,15.80
2019-02-10T10:48:08.765Z,14.50
2019-02-10T10:49:08.793Z,17.50
2019-02-10T10:50:08.742Z,14.60
2019-02-10T10:51:08.744Z,14.60
2019-02-10T10:52:08.719Z,13.80
2019-02-10T10:53:08.709Z,16.50
2019-02-10T10:54:08.708Z,18.40
2019-02-10T10:55:08.693Z,15.90
2019-02-10T10:56:08.690Z,19.40
2019-02-10T10:57:08.666Z,15.70
2019-02-10T10:58:08.656Z,14.50
2019-02-10T10:59:08.646Z,13.00
2019-02-10T11:00:08.637Z,14.70
2019-02-10T11:01:08.638Z,14.90
2019-02-10T11:02:08.615Z,14.50
2019-02-10T11:03:08.606Z,14.20
2019-02-10T11:04:08.594Z,16.70
2019-02-10T11:05:08.580Z,12.10
2019-02-10T11:06:08.583Z,14.40
2019-02-10T11:07:08.563Z,15.40
2019-02-10T11:08:08.549Z,15.50
2019-02-10T11:09:08.540Z,13.20
2019-02-10T11:10:08.530Z,20.30
2019-02-10T11:11:08.530Z,19.20
2019-02-10T11:12:08.510Z,13.80
2019-02-10T11:13:08.495Z,13.80
2019-02-10T11:14:08.487Z,15.10
2019-02-10T11:15:08.472Z,14.30
2019-02-10T11:16:08.479Z,13.30
2019-02-10T11:17:10.601Z,14.90
2019-02-10T11:18:08.443Z,12.20
2019-02-10T11:19:08.430Z,13.10
2019-02-10T11:20:08.420Z,14.20
2019-02-10T11:21:08.422Z,11.80
2019-02-10T11:22:08.397Z,12.50
2019-02-10T11:23:08.404Z,12.60
2019-02-10T11:24:08.374Z,13.60
2019-02-10T11:25:08.368Z,12.70
2019-02-10T11:26:08.411Z,12.30
2019-02-10T11:27:08.343Z,12.40
2019-02-10T11:28:08.337Z,14.40
2019-02-10T11:29:08.389Z,12.30
2019-02-10T11:30:08.311Z,12.60
2019-02-10T11:31:08.303Z,14.50
2019-02-10T11:32:08.300Z,14.50
2019-02-10T11:33:08.285Z,15.30
2019-02-10T11:34:08.269Z,19.90
2019-02-10T11:35:09.060Z,15.80
2019-02-10T11:36:08.246Z,22.60
2019-02-10T11:37:08.280Z,11.40
2019-02-10T11:38:08.230Z,10.50
2019-02-10T11:39:08.223Z,7.50
2019-02-10T11:40:09.098Z,11.20
2019-02-10T11:41:08.192Z,11.20
2019-02-10T11:42:08.209Z,10.80
2019-02-10T11:43:08.194Z,11.40
2019-02-10T11:44:08.160Z,11.90
2019-02-10T11:45:08.155Z,12.10
2019-02-10T11:46:08.142Z,11.90
2019-02-10T11:47:08.141Z,12.30
2019-02-10T11:48:08.117Z,10.50
2019-02-10T11:49:08.107Z,11.90
2019-02-10T11:50:08.108Z,10.80
2019-02-10T11:51:08.096Z,9.00
2019-02-10T11:52:08.086Z,9.20
2019-02-10T11:53:08.064Z,11.50
2019-02-10T11:54:08.051Z,10.50
2019-02-10T11:55:08.044Z,9.90
2019-02-10T11:56:08.040Z,11.40
2019-02-10T11:57:08.038Z,10.50
2019-02-10T11:58:08.010Z,11.10
2019-02-10T11:59:08.001Z,14.70
2019-02-10T12:00:07.989Z,14.20
2019-02-10T12:01:07.975Z,12.60
2019-02-10T12:02:07.981Z,10.10
2019-02-10T12:03:07.954Z,12.30
2019-02-10T12:04:07.961Z,11.80
2019-02-10T12:05:07.939Z,9.30
2019-02-10T12:06:07.922Z,11.70
2019-02-10T12:07:07.924Z,11.50
2019-02-10T12:08:07.909Z,10.60
2019-02-10T12:09:07.893Z,9.50
2019-02-10T12:10:07.883Z,10.70
2019-02-10T12:11:07.870Z,8.70
2019-02-10T12:12:07.870Z,8.70
2019-02-10T12:13:07.853Z,10.50
2019-02-10T12:14:07.841Z,9.80
2019-02-10T12:15:07.829Z,11.40
2019-02-10T12:16:07.817Z,9.20
2019-02-10T12:17:07.876Z,8.00
2019-02-10T12:18:07.810Z,9.90
2019-02-10T12:19:07.788Z,8.10
2019-02-10T12:20:07.776Z,9.70
2019-02-10T12:21:07.763Z,10.70
2019-02-10T12:22:07.767Z,9.70
2019-02-10T12:23:07.743Z,10.70
2019-02-10T12:24:07.732Z,8.00
2019-02-10T12:25:07.730Z,10.10
2019-02-10T12:26:07.711Z,8.40
2019-02-10T12:27:07.757Z,8.30
2019-02-10T12:28:07.690Z,10.00
2019-02-10T12:29:07.679Z,8.00
2019-02-10T12:30:07.671Z,7.30
2019-02-10T12:31:07.664Z,7.00
2019-02-10T12:32:07.650Z,6.70
2019-02-10T12:33:07.658Z,10.30
2019-02-10T12:34:07.641Z,7.80
2019-02-10T12:35:07.617Z,6.00
2019-02-10T12:36:07.604Z,6.80
2019-02-10T12:37:07.595Z,6.20
2019-02-10T12:38:07.591Z,7.90
2019-02-10T12:39:07.576Z,8.70
2019-02-10T12:40:07.564Z,6.80
2019-02-10T12:41:07.553Z,9.10
2019-02-10T12:42:07.540Z,7.60
2019-02-10T12:43:07.550Z,8.70
2019-02-10T12:44:07.544Z,7.90
2019-02-10T12:45:07.513Z,8.20
2019-02-10T12:46:07.494Z,7.00
2019-02-10T12:47:07.487Z,8.30
2019-02-10T12:48:07.486Z,7.00
2019-02-10T12:49:07.465Z,5.00
2019-02-10T12:50:07.455Z,10.30
2019-02-10T12:51:07.447Z,9.00
2019-02-10T12:52:07.433Z,6.90
2019-02-10T12:53:07.435Z,9.00
2019-02-10T12:54:07.410Z,7.30
2019-02-10T12:55:07.419Z,10.20
2019-02-10T12:56:07.394Z,8.00
2019-02-10T12:57:07.383Z,7.40
2019-02-10T12:58:07.392Z,7.60
2019-02-10T12:59:07.361Z,8.10